createdAt,value
2023-05-05T00:01:10.979Z,2.53
2023-05-05T00:11:13.346Z,2.42
2023-05-05T00:21:16.002Z,2.17
2023-05-05T00:31:18.495Z,1.90
2023-05-05T00:41:20.851Z,2.00
2023-05-05T00:51:24.340Z,1.80
2023-05-05T01:01:26.641Z,1.77
2023-05-05T01:11:41.038Z,2.92
2023-05-05T01:21:56.307Z,2.10
2023-05-05T05:05:11.209Z,4.70
2023-05-05T05:15:13.674Z,4.18
2023-05-05T05:25:16.354Z,4.80
2023-05-05T05:35:18.668Z,5.00
2023-05-05T05:45:21.943Z,9.07
2023-05-05T05:55:24.263Z,7.10
2023-05-05T06:05:27.177Z,4.85
2023-05-05T06:15:29.546Z,7.35
2023-05-05T06:25:31.870Z,5.18
2023-05-05T06:35:34.232Z,4.55
2023-05-05T06:45:36.558Z,5.07
2023-05-05T06:55:38.966Z,5.80
2023-05-05T07:05:41.258Z,4.40
2023-05-05T07:15:46.935Z,3.45
2023-05-05T07:25:49.319Z,3.78
2023-05-05T07:35:51.794Z,2.47
2023-05-05T07:45:54.290Z,3.28
2023-05-05T07:55:56.641Z,3.35
2023-05-05T08:06:08.790Z,4.40
2023-05-05T08:16:11.867Z,2.45
2023-05-05T08:26:14.175Z,2.85
2023-05-05T08:36:16.534Z,3.17
2023-05-05T08:46:18.913Z,2.78
2023-05-05T08:56:24.808Z,1.60
2023-05-05T09:06:27.681Z,2.60
2023-05-05T09:16:30.092Z,2.00
2023-05-05T09:26:34.613Z,2.10
2023-05-05T09:36:43.789Z,2.67
2023-05-05T09:46:53.053Z,2.45
2023-05-05T09:56:57.036Z,1.63
2023-05-05T10:06:59.486Z,1.90
2023-05-05T10:17:02.428Z,2.15
2023-05-05T10:27:12.727Z,2.92
2023-05-05T10:37:17.074Z,2.20
2023-05-05T10:47:21.850Z,2.50
2023-05-05T10:57:28.890Z,2.85
2023-05-05T11:07:31.852Z,2.03
2023-05-05T11:17:47.935Z,2.25
2023-05-05T11:28:09.828Z,2.38
2023-05-05T11:38:14.958Z,2.15
2023-05-05T11:48:27.430Z,2.63
2023-05-05T11:58:29.778Z,3.80
2023-05-05T12:08:39.112Z,2.03
2023-05-05T12:18:42.114Z,2.65
2023-05-05T12:28:48.166Z,2.15
2023-05-05T12:38:50.583Z,2.88
2023-05-05T12:49:07.041Z,2.05
2023-05-05T12:59:12.182Z,3.22
2023-05-05T13:09:28.075Z,2.22
2023-05-05T13:19:30.848Z,2.92
2023-05-05T13:29:33.819Z,2.58
2023-05-05T13:39:37.177Z,2.00
2023-05-05T13:49:39.537Z,4.38
2023-05-05T13:59:41.871Z,3.40
2023-05-05T14:09:44.155Z,3.10
2023-05-05T14:19:46.515Z,1.95
2023-05-05T14:29:48.837Z,3.92
2023-05-05T14:39:51.122Z,2.35
2023-05-05T14:49:53.407Z,2.60
2023-05-05T14:59:55.874Z,3.58
2023-05-05T15:09:58.219Z,2.85
2023-05-05T15:20:00.505Z,3.90
2023-05-05T15:30:03.057Z,3.05
2023-05-05T15:40:05.985Z,3.50
2023-05-05T15:50:08.872Z,3.30
2023-05-05T16:00:11.704Z,4.88
2023-05-05T16:10:14.573Z,4.10
2023-05-05T16:20:19.031Z,3.40
2023-05-05T16:30:24.590Z,4.05
2023-05-05T16:40:26.911Z,3.33
2023-05-05T16:50:29.224Z,3.35
2023-05-05T17:00:31.627Z,4.53
2023-05-05T17:10:33.955Z,7.40
2023-05-05T17:20:36.649Z,4.68
2023-05-05T17:33:35.065Z,6.03
2023-05-05T17:43:37.402Z,3.80
2023-05-05T17:53:39.703Z,3.17
2023-05-05T18:03:42.279Z,2.40
2023-05-05T18:13:44.661Z,2.95
2023-05-05T18:23:47.008Z,2.47
2023-05-05T18:33:49.324Z,2.72
2023-05-05T18:43:51.617Z,2.42
2023-05-05T18:53:54.005Z,2.65
2023-05-05T19:03:56.485Z,2.25
2023-05-05T19:13:58.831Z,2.85
2023-05-05T19:24:01.160Z,2.30
2023-05-05T19:34:04.986Z,2.00
2023-05-05T19:44:07.284Z,2.40
2023-05-05T19:54:09.617Z,2.55
2023-05-05T20:04:12.021Z,3.78
2023-05-05T20:14:14.287Z,3.30
2023-05-05T20:24:17.478Z,2.90
2023-05-05T20:34:19.870Z,5.95
2023-05-05T20:44:22.253Z,3.95
2023-05-05T20:54:24.639Z,3.40
2023-05-05T21:04:27.178Z,2.90
2023-05-05T21:14:29.760Z,2.80
2023-05-05T21:24:32.136Z,3.30
2023-05-05T21:34:34.972Z,3.10
2023-05-05T21:44:37.263Z,3.83
2023-05-05T21:54:39.651Z,3.50
2023-05-05T22:10:13.008Z,3.35
2023-05-05T22:20:15.419Z,6.70
2023-05-05T22:30:17.770Z,6.30
2023-05-05T22:40:20.311Z,5.30
2023-05-05T22:50:22.778Z,4.57
2023-05-05T23:00:25.399Z,4.30
2023-05-05T23:10:29.340Z,5.05
2023-05-05T23:20:31.722Z,5.43
2023-05-05T23:30:34.136Z,5.40
2023-05-05T23:40:36.509Z,3.60
2023-05-05T23:50:38.916Z,3.33
